Time;durP1;ratioP1;P1;durP2;ratioP2;P2;SDS_P1;SDS_P2;PMS_P1;PMS_P2;Temp;Humidity;BMP_temperature;BMP_pressure;BME280_temperature;BME280_humidity;BME280_pressure;Samples;Min_cycle;Max_cycle;Signal;HPM_P1;HPM_P2
2022/12/09 00:01:49;;;;;;;17.60;5.10;;;11.70;99.90;;;;;;5052507;28;20060;-71
2022/12/09 00:04:53;;;;;;;7.85;2.40;;;11.80;99.90;;;;;;5052974;28;20052;-71
2022/12/09 00:07:57;;;;;;;11.05;3.50;;;11.80;99.90;;;;;;5053133;28;20056;-71
2022/12/09 00:11:01;;;;;;;9.43;2.80;;;11.60;99.90;;;;;;5053090;28;20514;-72
2022/12/09 00:14:07;;;;;;;12.27;4.90;;;11.50;99.90;;;;;;5052637;28;20040;-71
2022/12/09 00:17:12;;;;;;;5.97;2.30;;;11.40;99.90;;;;;;5052941;28;20044;-70
2022/12/09 00:20:16;;;;;;;4.35;1.98;;;11.40;99.90;;;;;;5052980;28;20048;-71
2022/12/09 00:23:20;;;;;;;5.03;2.13;;;11.40;99.90;;;;;;5062915;28;20048;-71
2022/12/09 00:26:26;;;;;;;3.10;1.40;;;11.40;99.90;;;;;;5052955;28;20052;-70
2022/12/09 00:29:30;;;;;;;6.35;1.77;;;11.40;99.90;;;;;;5052575;28;20056;-71
2022/12/09 00:32:34;;;;;;;7.07;1.67;;;11.40;99.90;;;;;;5051941;28;20048;-70
2022/12/09 00:35:39;;;;;;;9.15;3.75;;;11.40;99.90;;;;;;5063059;28;20048;-71
2022/12/09 00:38:44;;;;;;;15.38;2.42;;;11.30;99.90;;;;;;5051482;28;20048;-72
2022/12/09 00:41:50;;;;;;;3.58;1.65;;;11.10;99.90;;;;;;5052414;28;20064;-71
2022/12/09 00:44:54;;;;;;;8.13;2.05;;;11.00;99.90;;;;;;5052346;28;20387;-71
2022/12/09 00:47:58;;;;;;;9.32;4.28;;;10.90;99.90;;;;;;5052359;28;20040;-71
2022/12/09 00:51:04;;;;;;;7.88;2.50;;;10.90;99.90;;;;;;5051550;28;20052;-71
2022/12/09 00:54:08;;;;;;;9.63;4.82;;;10.70;99.90;;;;;;5051168;28;20040;-71
2022/12/09 00:57:12;;;;;;;8.90;3.33;;;10.70;99.90;;;;;;5052712;28;20048;-71
2022/12/09 01:00:16;;;;;;;11.18;3.45;;;10.60;99.90;;;;;;5063172;28;20396;-70
2022/12/09 01:03:21;;;;;;;13.40;4.50;;;10.60;99.90;;;;;;5051959;28;20044;-70
2022/12/09 01:06:25;;;;;;;12.23;2.83;;;10.50;99.90;;;;;;5051877;28;20388;-71
2022/12/09 01:09:32;;;;;;;6.10;2.60;;;10.50;99.90;;;;;;5052069;28;20060;-70
2022/12/09 01:12:37;;;;;;;5.25;2.03;;;10.60;99.90;;;;;;5051075;28;20055;-70
2022/12/09 01:15:43;;;;;;;7.18;2.20;;;10.70;99.90;;;;;;5051036;28;20052;-70
2022/12/09 01:18:49;;;;;;;7.97;3.53;;;10.80;99.90;;;;;;5052031;28;20064;-70
2022/12/09 01:21:54;;;;;;;10.10;3.05;;;10.80;99.90;;;;;;5051881;28;20044;-71
2022/12/09 01:24:58;;;;;;;11.93;2.70;;;10.80;99.90;;;;;;5051727;28;20067;-71
2022/12/09 01:28:02;;;;;;;12.90;2.75;;;10.70;99.90;;;;;;5050962;28;20055;-71
2022/12/09 01:31:12;;;;;;;12.82;3.00;;;10.70;99.90;;;;;;5051781;28;20047;-72
2022/12/09 01:34:16;;;;;;;7.70;2.83;;;10.60;99.90;;;;;;5051462;28;20498;-71
2022/12/09 01:37:20;;;;;;;10.77;3.22;;;10.60;99.90;;;;;;5050718;28;20503;-72
2022/12/09 01:40:24;;;;;;;10.05;4.43;;;10.50;99.90;;;;;;5051135;28;20048;-72
2022/12/09 01:43:28;;;;;;;10.45;4.07;;;10.50;99.90;;;;;;5050978;28;20068;-72
2022/12/09 01:46:33;;;;;;;7.22;3.65;;;10.50;99.90;;;;;;5051153;28;20060;-72
2022/12/09 01:49:41;;;;;;;6.07;3.35;;;10.60;99.90;;;;;;5051113;28;20056;-73
2022/12/09 01:52:46;;;;;;;11.98;3.45;;;10.70;99.90;;;;;;5050414;28;20056;-72
2022/12/09 01:55:52;;;;;;;13.57;3.95;;;10.70;99.90;;;;;;5051250;28;20048;-72
2022/12/09 01:59:01;;;;;;;11.00;3.80;;;10.80;99.90;;;;;;5051258;28;20047;-72
2022/12/09 02:02:08;;;;;;;6.43;3.60;;;10.80;99.90;;;;;;5050340;28;20048;-72
2022/12/09 02:05:12;;;;;;;13.13;5.18;;;10.80;99.90;;;;;;5061024;28;20047;-72
2022/12/09 02:08:19;;;;;;;10.35;4.32;;;10.90;99.90;;;;;;5049826;28;20044;-73
2022/12/09 02:11:45;;;;;;;8.73;4.60;;;10.80;99.90;;;;;;5061672;28;20499;-72
2022/12/09 02:15:00;;;;;;;13.20;5.03;;;10.80;99.90;;;;;;5050043;28;20388;-72
2022/12/09 02:18:36;;;;;;;14.18;6.95;;;10.80;99.90;;;;;;5050464;28;20044;-73
2022/12/09 02:21:59;;;;;;;19.20;8.07;;;10.70;99.90;;;;;;5050109;28;20064;-73
2022/12/09 02:25:13;;;;;;;11.55;6.38;;;10.50;99.90;;;;;;5061370;28;20059;-72
2022/12/09 02:28:21;;;;;;;11.63;4.43;;;10.60;99.90;;;;;;5049762;28;20502;-73
2022/12/09 02:31:37;;;;;;;13.32;5.30;;;10.70;99.90;;;;;;5049788;28;20056;-72
2022/12/09 02:35:05;;;;;;;12.52;5.63;;;10.90;99.90;;;;;;5049436;28;20060;-73
2022/12/09 02:38:16;;;;;;;15.98;8.95;;;10.80;99.90;;;;;;5034509;28;20044;-74
2022/12/09 02:41:26;;;;;;;18.63;7.95;;;10.70;99.90;;;;;;5061268;28;20036;-73
2022/12/09 02:44:31;;;;;;;10.73;6.95;;;10.70;99.90;;;;;;5049593;28;20036;-73
2022/12/09 02:47:40;;;;;;;11.18;5.53;;;10.60;99.90;;;;;;5049528;28;20060;-72
2022/12/09 02:50:50;;;;;;;10.35;5.50;;;10.60;99.90;;;;;;5049081;28;20056;-73
2022/12/09 02:54:02;;;;;;;13.80;7.18;;;10.70;99.90;;;;;;5048814;28;20523;-73
2022/12/09 02:57:16;;;;;;;11.80;6.25;;;10.80;99.90;;;;;;5049427;28;20048;-73
2022/12/09 03:00:21;;;;;;;14.10;5.13;;;10.70;99.90;;;;;;5038336;28;20395;-72
2022/12/09 03:03:27;;;;;;;14.43;6.70;;;10.90;99.90;;;;;;5049582;28;20056;-73
2022/12/09 03:06:40;;;;;;;11.32;4.90;;;10.90;99.90;;;;;;5050371;28;20051;-73
2022/12/09 03:09:45;;;;;;;;;;;10.90;99.90;;;;;;5050559;28;20052;-72
2022/12/09 03:13:03;;;;;;;10.18;4.40;;;11.00;99.90;;;;;;5050335;28;19915;-73
2022/12/09 03:16:24;;;;;;;7.28;3.97;;;11.00;99.90;;;;;;5050123;28;20040;-72
2022/12/09 03:19:41;;;;;;;11.27;3.67;;;11.10;99.90;;;;;;5050131;28;20040;-72
2022/12/09 03:22:46;;;;;;;9.82;3.50;;;11.20;99.90;;;;;;5049975;28;20048;-72
2022/12/09 03:25:53;;;;;;;15.05;8.57;;;11.30;99.90;;;;;;5050215;28;20044;-72
2022/12/09 03:28:59;;;;;;;32.58;10.88;;;11.00;99.90;;;;;;5050013;28;20056;-72
2022/12/09 03:32:03;;;;;;;14.45;4.72;;;10.70;99.90;;;;;;5053657;28;20044;-73
2022/12/09 03:35:10;;;;;;;11.20;4.68;;;10.90;99.90;;;;;;5053212;28;20064;-72
2022/12/09 03:38:17;;;;;;;12.65;3.67;;;11.10;99.90;;;;;;5053461;28;20051;-71
2022/12/09 03:41:27;;;;;;;6.43;3.60;;;11.30;99.90;;;;;;5054044;28;20396;-72
2022/12/09 03:44:39;;;;;;;8.00;3.22;;;11.60;99.90;;;;;;5053390;28;20380;-72
2022/12/09 03:47:43;;;;;;;7.80;3.40;;;11.70;99.90;;;;;;5053834;28;20048;-71
2022/12/09 03:50:59;;;;;;;10.95;3.65;;;11.80;99.90;;;;;;5052637;28;20052;-72
2022/12/09 03:54:21;;;;;;;12.60;3.20;;;11.80;99.90;;;;;;5053132;28;20506;-73
2022/12/09 03:57:26;;;;;;;11.23;3.20;;;11.80;99.90;;;;;;5053425;28;20040;-73
2022/12/09 04:00:30;;;;;;;7.85;2.92;;;11.70;99.90;;;;;;5053293;28;20055;-73
2022/12/09 04:03:34;;;;;;;8.90;3.00;;;11.80;99.90;;;;;;5053345;28;20044;-74
2022/12/09 04:06:38;;;;;;;10.63;2.70;;;11.80;99.90;;;;;;5053490;28;20056;-72
2022/12/09 04:09:42;;;;;;;7.63;2.80;;;11.90;99.90;;;;;;5053185;28;20072;-73
2022/12/09 04:12:46;;;;;;;9.50;3.05;;;12.00;99.90;;;;;;5053099;28;20499;-73
2022/12/09 04:15:50;;;;;;;7.50;2.85;;;12.00;99.90;;;;;;5053187;28;20048;-74
2022/12/09 04:18:55;;;;;;;11.90;3.72;;;11.90;99.90;;;;;;5063694;28;20036;-75
2022/12/09 04:22:00;;;;;;;18.23;3.58;;;11.90;99.90;;;;;;5052996;28;20482;-75
2022/12/09 04:25:04;;;;;;;8.32;3.03;;;11.80;99.90;;;;;;5052410;28;20047;-75
2022/12/09 04:28:11;;;;;;;16.05;3.65;;;11.80;99.90;;;;;;5052887;28;20060;-73
2022/12/09 04:31:17;;;;;;;11.45;3.17;;;11.80;99.90;;;;;;5052782;28;20056;-73
2022/12/09 04:34:21;;;;;;;13.20;3.47;;;11.90;99.90;;;;;;5052392;28;20519;-74
2022/12/09 04:37:25;;;;;;;16.98;3.90;;;11.90;99.90;;;;;;5052521;28;20040;-73
2022/12/09 04:40:29;;;;;;;8.18;3.10;;;11.90;99.90;;;;;;5052667;28;20040;-74
2022/12/09 04:43:34;;;;;;;13.55;3.47;;;11.90;99.90;;;;;;5051031;28;20056;-74
2022/12/09 04:46:38;;;;;;;14.38;5.40;;;12.00;99.90;;;;;;5052723;28;20048;-74
2022/12/09 04:49:42;;;;;;;15.15;7.65;;;11.80;99.90;;;;;;5052586;28;20060;-73
2022/12/09 04:52:46;;;;;;;13.45;7.05;;;11.30;99.90;;;;;;5052532;28;20040;-73
2022/12/09 04:56:02;;;;;;;18.25;6.28;;;11.20;99.90;;;;;;5052692;28;20490;-73
2022/12/09 04:59:05;;;;;;;16.45;5.03;;;11.20;99.90;;;;;;5052437;28;20076;-72
2022/12/09 05:02:09;;;;;;;16.85;5.07;;;11.40;99.90;;;;;;5063088;28;20515;-72
2022/12/09 05:05:14;;;;;;;11.77;4.57;;;11.50;99.90;;;;;;5051883;28;20044;-73
2022/12/09 05:08:18;;;;;;;19.00;5.15;;;11.60;99.90;;;;;;5052199;28;20506;-72
2022/12/09 05:11:23;;;;;;;8.48;3.58;;;11.70;99.90;;;;;;5051427;28;20384;-72
2022/12/09 05:14:27;;;;;;;13.18;4.40;;;12.00;99.90;;;;;;5051302;28;20546;-73
2022/12/09 05:17:31;;;;;;;16.98;3.75;;;12.10;99.90;;;;;;5052269;28;20420;-74
2022/12/09 05:20:38;;;;;;;12.75;3.05;;;12.10;99.90;;;;;;5039889;28;20108;-72
2022/12/09 05:23:45;;;;;;;16.58;3.72;;;12.10;99.90;;;;;;5051613;28;20043;-73
2022/12/09 05:26:49;;;;;;;17.95;3.10;;;12.10;99.90;;;;;;5051996;28;20400;-72
2022/12/09 05:29:53;;;;;;;13.48;3.35;;;12.10;99.90;;;;;;5051729;28;20494;-72
2022/12/09 05:32:57;;;;;;;11.38;2.92;;;12.20;99.90;;;;;;5062299;28;20545;-72
2022/12/09 05:36:01;;;;;;;13.02;3.95;;;12.20;99.90;;;;;;5052171;28;20032;-72
2022/12/09 05:39:05;;;;;;;13.98;3.47;;;12.20;99.90;;;;;;5050867;28;20043;-72
2022/12/09 05:42:09;;;;;;;10.35;3.10;;;12.20;99.90;;;;;;5051759;28;20403;-73
2022/12/09 05:45:13;;;;;;;18.38;3.45;;;12.30;99.90;;;;;;5051056;28;20487;-72
2022/12/09 05:48:17;;;;;;;15.23;3.88;;;12.30;99.90;;;;;;5051511;28;20060;-72
2022/12/09 05:51:23;;;;;;;19.40;4.10;;;12.30;99.90;;;;;;5051670;28;20047;-72
2022/12/09 05:54:27;;;;;;;10.85;3.75;;;12.20;99.90;;;;;;5050188;28;20047;-73
2022/12/09 05:57:33;;;;;;;17.88;4.53;;;12.30;99.90;;;;;;5050722;28;20052;-72
2022/12/09 06:00:37;;;;;;;20.00;5.85;;;12.40;99.90;;;;;;5051624;28;20120;-72
2022/12/09 06:03:42;;;;;;;18.85;5.00;;;12.50;99.90;;;;;;5051099;28;20297;-72
2022/12/09 06:06:47;;;;;;;10.98;4.63;;;12.50;99.90;;;;;;5051794;28;20051;-71
2022/12/09 06:09:51;;;;;;;11.38;4.65;;;12.60;99.90;;;;;;5051293;28;20044;-72
2022/12/09 06:12:56;;;;;;;19.85;5.15;;;12.60;99.90;;;;;;5051389;28;20407;-72
2022/12/09 06:16:07;;;;;;;13.65;4.80;;;12.60;99.90;;;;;;5051097;28;20048;-72
2022/12/09 06:19:12;;;;;;;22.42;5.78;;;12.70;99.90;;;;;;5050715;28;20044;-71
2022/12/09 06:22:15;;;;;;;15.45;5.32;;;12.70;99.90;;;;;;5050973;28;20049;-72
2022/12/09 06:25:21;;;;;;;19.75;5.95;;;12.80;99.90;;;;;;5050410;28;20044;-72
2022/12/09 06:28:25;;;;;;;22.83;7.00;;;12.80;99.90;;;;;;5050742;28;20498;-71
2022/12/09 06:31:30;;;;;;;22.42;6.43;;;12.90;99.90;;;;;;5050785;28;20039;-71
2022/12/09 06:34:34;;;;;;;20.48;7.43;;;13.00;99.90;;;;;;5050444;28;20055;-73
2022/12/09 06:37:38;;;;;;;24.50;7.30;;;13.00;99.90;;;;;;5051220;28;20460;-71
2022/12/09 06:40:43;;;;;;;30.35;7.88;;;13.10;99.90;;;;;;5051250;28;20159;-71
2022/12/09 06:43:47;;;;;;;21.85;7.22;;;13.10;99.90;;;;;;5050935;28;20055;-72
2022/12/09 06:46:51;;;;;;;35.58;7.88;;;13.10;99.90;;;;;;5049884;28;20044;-73
2022/12/09 06:49:56;;;;;;;34.97;8.85;;;13.10;99.90;;;;;;5050989;28;20068;-71
2022/12/09 06:53:00;;;;;;;24.77;7.97;;;13.00;99.90;;;;;;5048952;28;20060;-72
2022/12/09 06:56:06;;;;;;;24.95;7.70;;;13.00;99.90;;;;;;5050879;28;20069;-72
2022/12/09 06:59:10;;;;;;;28.17;8.25;;;13.00;99.90;;;;;;5051229;28;20056;-72
2022/12/09 07:02:14;;;;;;;28.58;7.75;;;13.10;99.90;;;;;;5050482;28;20063;-72
2022/12/09 07:05:19;;;;;;;24.20;6.88;;;13.10;99.90;;;;;;5049658;28;20112;-72
2022/12/09 07:08:23;;;;;;;26.65;6.47;;;13.10;99.90;;;;;;5050712;28;20048;-72
2022/12/09 07:11:28;;;;;;;27.73;7.50;;;13.20;99.90;;;;;;5050219;28;20078;-71
2022/12/09 07:14:32;;;;;;;29.17;6.70;;;13.20;99.90;;;;;;5050042;28;20511;-72
2022/12/09 07:17:39;;;;;;;18.75;6.80;;;13.30;99.90;;;;;;5050486;28;20044;-72
2022/12/09 07:20:43;;;;;;;28.23;8.07;;;13.30;99.90;;;;;;5050589;28;20048;-72
2022/12/09 07:23:47;;;;;;;49.10;8.63;;;13.30;99.90;;;;;;5049736;28;20048;-71
2022/12/09 07:26:52;;;;;;;35.65;7.32;;;13.40;99.90;;;;;;5050446;28;20503;-72
2022/12/09 07:29:56;;;;;;;36.42;6.50;;;13.40;99.90;;;;;;5050007;28;20044;-71
2022/12/09 07:33:02;;;;;;;51.15;10.40;;;13.50;99.90;;;;;;5051397;28;20048;-73
2022/12/09 07:36:06;;;;;;;47.92;7.55;;;13.60;99.90;;;;;;5050825;28;20056;-72
2022/12/09 07:39:15;;;;;;;40.42;7.93;;;13.60;99.90;;;;;;5050258;28;20519;-72
2022/12/09 07:42:19;;;;;;;40.75;8.68;;;13.60;99.90;;;;;;5050046;28;20380;-71
2022/12/09 07:45:33;;;;;;;49.00;8.13;;;13.60;99.90;;;;;;5060630;28;20064;-71
2022/12/09 07:48:38;;;;;;;42.33;8.25;;;13.70;99.90;;;;;;5028581;28;20029;-72
2022/12/09 07:51:43;;;;;;;38.45;8.65;;;13.70;99.90;;;;;;5030152;28;20049;-72
2022/12/09 07:54:47;;;;;;;34.85;7.63;;;13.70;99.90;;;;;;5030215;28;20049;-72
2022/12/09 07:57:51;;;;;;;39.60;7.18;;;13.70;99.90;;;;;;5029280;28;20041;-72
2022/12/09 08:00:54;;;;;;;46.00;7.90;;;13.70;99.90;;;;;;5030221;28;20158;-72
2022/12/09 08:04:00;;;;;;;39.08;7.13;;;13.70;99.90;;;;;;5029437;28;20048;-72
2022/12/09 08:07:04;;;;;;;43.75;7.65;;;13.80;99.90;;;;;;5029462;28;20048;-72
2022/12/09 08:10:08;;;;;;;32.90;7.38;;;13.90;99.90;;;;;;5025807;28;20060;-73
2022/12/09 08:13:12;;;;;;;44.75;8.23;;;14.00;99.90;;;;;;5029863;28;20053;-71
2022/12/09 08:16:19;;;;;;;40.20;8.55;;;14.00;99.90;;;;;;5030961;28;20040;-72
2022/12/09 08:19:24;;;;;;;46.90;7.60;;;14.00;99.90;;;;;;5034070;28;20064;-70
2022/12/09 08:22:28;;;;;;;37.17;6.68;;;14.00;99.90;;;;;;5033396;28;20392;-71
2022/12/09 08:25:32;;;;;;;45.22;9.35;;;14.00;99.90;;;;;;5032426;28;20053;-70
2022/12/09 08:28:36;;;;;;;32.67;7.18;;;14.10;99.90;;;;;;5031913;28;20044;-71
2022/12/09 08:31:42;;;;;;;36.35;6.40;;;14.10;99.90;;;;;;5031504;28;20113;-70
2022/12/09 08:34:46;;;;;;;44.78;7.90;;;14.20;99.90;;;;;;5030378;28;20054;-71
2022/12/09 08:37:50;;;;;;;38.70;7.32;;;14.30;99.90;;;;;;5030954;28;20048;-72
2022/12/09 08:40:54;;;;;;;38.70;7.13;;;14.30;99.90;;;;;;5032898;28;20044;-72
2022/12/09 08:43:59;;;;;;;27.95;6.07;;;14.30;99.90;;;;;;5032511;28;20045;-70
2022/12/09 08:47:03;;;;;;;42.55;6.82;;;14.40;99.90;;;;;;5032230;28;20049;-71
2022/12/09 08:50:07;;;;;;;32.53;6.32;;;14.50;99.90;;;;;;5031903;28;20044;-72
2022/12/09 08:53:11;;;;;;;29.85;5.75;;;14.40;99.90;;;;;;5024011;28;20135;-72
2022/12/09 08:56:15;;;;;;;33.13;6.60;;;14.40;99.90;;;;;;5033489;28;20044;-73
2022/12/09 08:59:21;;;;;;;51.03;7.40;;;14.40;99.90;;;;;;5031523;28;20041;-72
2022/12/09 09:02:24;;;;;;;38.38;6.22;;;14.50;99.90;;;;;;5027490;28;20045;-72
2022/12/09 09:05:28;;;;;;;37.97;7.28;;;14.50;99.90;;;;;;5031830;28;20041;-71
2022/12/09 09:08:34;;;;;;;36.67;7.40;;;14.40;99.90;;;;;;5020486;28;20036;-71
2022/12/09 09:11:39;;;;;;;33.42;6.07;;;14.40;99.90;;;;;;5032270;28;20056;-72
2022/12/09 09:14:44;;;;;;;32.88;6.93;;;14.40;99.90;;;;;;5030501;28;20397;-71
2022/12/09 09:17:47;;;;;;;36.03;7.43;;;14.40;99.90;;;;;;5030584;28;20041;-71
2022/12/09 09:20:52;;;;;;;28.38;5.13;;;14.40;99.90;;;;;;5031573;28;20388;-72
2022/12/09 09:23:56;;;;;;;32.63;5.88;;;14.40;99.90;;;;;;5019500;28;20036;-71
2022/12/09 09:27:00;;;;;;;39.78;6.95;;;14.40;99.90;;;;;;5027194;28;20041;-71
2022/12/09 09:30:08;;;;;;;33.83;5.78;;;14.40;99.90;;;;;;5024360;28;20400;-71
2022/12/09 09:33:13;;;;;;;32.08;7.55;;;14.50;99.90;;;;;;5024768;28;20053;-71
2022/12/09 09:36:20;;;;;;;37.35;7.45;;;14.50;99.90;;;;;;5028587;28;20041;-72
2022/12/09 09:39:24;;;;;;;37.05;6.57;;;14.50;99.90;;;;;;5028426;28;20037;-71
2022/12/09 09:42:35;;;;;;;36.53;6.68;;;14.60;99.90;;;;;;5028642;28;20053;-71
2022/12/09 09:45:39;;;;;;;44.83;6.43;;;14.60;99.90;;;;;;5027388;28;20036;-71
2022/12/09 09:48:45;;;;;;;34.60;6.45;;;14.60;99.90;;;;;;5026431;28;20380;-73
2022/12/09 09:51:49;;;;;;;43.03;6.68;;;14.60;99.90;;;;;;5026280;28;20130;-71
2022/12/09 09:54:54;;;;;;;37.92;8.25;;;14.60;99.90;;;;;;5024935;28;20096;-72
2022/12/09 09:57:59;;;;;;;34.78;6.43;;;14.60;99.90;;;;;;5028337;28;20235;-71
2022/12/09 10:01:12;;;;;;;29.40;7.22;;;14.60;99.90;;;;;;5030255;28;20032;-71
2022/12/09 10:04:26;;;;;;;36.70;7.07;;;14.60;99.90;;;;;;5028899;28;20055;-71
2022/12/09 10:07:47;;;;;;;45.70;8.07;;;14.60;99.90;;;;;;5031115;28;20060;-71
2022/12/09 10:11:34;;;;;;;39.67;7.35;;;14.60;99.90;;;;;;5031135;28;20407;-71
2022/12/09 10:14:47;;;;;;;37.15;6.20;;;14.70;99.90;;;;;;5030160;28;20044;-71
2022/12/09 10:17:54;;;;;;;45.83;6.28;;;14.70;99.90;;;;;;5026861;28;20045;-70
2022/12/09 10:20:59;;;;;;;35.53;5.93;;;14.70;99.90;;;;;;5011376;28;20065;-74
2022/12/09 10:24:16;;;;;;;43.53;6.07;;;14.80;99.90;;;;;;5020325;28;20380;-71
2022/12/09 10:27:44;;;;;;;39.38;6.70;;;15.00;99.90;;;;;;5029902;28;20455;-71
2022/12/09 10:30:49;;;;;;;32.42;6.45;;;15.00;99.90;;;;;;5028089;28;20396;-71
2022/12/09 10:33:54;;;;;;;33.90;7.18;;;15.10;99.90;;;;;;5028198;28;20491;-73
2022/12/09 10:36:58;;;;;;;31.23;6.20;;;15.10;99.90;;;;;;5023251;28;20037;-72
2022/12/09 10:40:30;;;;;;;33.50;6.10;;;15.10;99.90;;;;;;5028773;28;20044;-72
2022/12/09 10:43:42;;;;;;;39.45;5.80;;;15.20;99.90;;;;;;5028821;28;20041;-71
2022/12/09 10:46:48;;;;;;;25.23;4.93;;;15.20;99.90;;;;;;5028185;28;20511;-72
2022/12/09 10:49:53;;;;;;;24.02;4.70;;;15.30;99.90;;;;;;5026742;28;20032;-71
2022/12/09 10:53:05;;;;;;;35.72;6.22;;;15.30;99.90;;;;;;5025440;28;20041;-71
2022/12/09 10:56:15;;;;;;;36.05;6.95;;;15.00;99.90;;;;;;5030035;28;20036;-72
2022/12/09 10:59:24;;;;;;;45.70;6.78;;;14.80;99.90;;;;;;5016746;28;20060;-72
2022/12/09 11:02:31;;;;;;;34.63;6.57;;;14.70;99.90;;;;;;5029686;28;20052;-72
2022/12/09 11:05:35;;;;;;;30.58;5.25;;;14.70;99.90;;;;;;5023105;28;20056;-73
2022/12/09 11:08:40;;;;;;;34.22;6.50;;;14.60;99.90;;;;;;5028670;28;20052;-73
2022/12/09 11:11:48;;;;;;;33.70;6.43;;;14.50;99.90;;;;;;5029217;28;20068;-72
2022/12/09 11:15:00;;;;;;;41.22;6.85;;;14.40;99.90;;;;;;5029445;28;20048;-72
2022/12/09 11:18:16;;;;;;;34.67;5.90;;;14.50;99.90;;;;;;5030196;28;20040;-72
2022/12/09 11:21:31;;;;;;;29.40;6.18;;;14.50;99.90;;;;;;5012030;28;20048;-72
2022/12/09 11:24:35;;;;;;;28.98;5.05;;;14.60;99.90;;;;;;5028847;28;20052;-72
2022/12/09 11:27:49;;;;;;;39.70;5.68;;;14.70;99.90;;;;;;5025346;28;20052;-72
2022/12/09 11:31:10;;;;;;;35.17;5.85;;;14.80;99.90;;;;;;5030460;28;20484;-72
2022/12/09 11:34:22;;;;;;;22.05;4.03;;;15.00;99.90;;;;;;5030032;28;20049;-72
2022/12/09 11:37:27;;;;;;;33.70;4.63;;;15.10;99.90;;;;;;5030161;28;20044;-72
2022/12/09 11:40:33;;;;;;;24.35;5.25;;;15.20;99.90;;;;;;5029359;28;20045;-72
2022/12/09 11:43:53;;;;;;;28.67;4.95;;;15.20;99.90;;;;;;5027948;28;20087;-72
2022/12/09 11:47:33;;;;;;;29.13;4.20;;;15.30;99.90;;;;;;5028601;28;20045;-72
2022/12/09 11:50:41;;;;;;;28.83;4.60;;;15.30;99.90;;;;;;5029307;28;20040;-72
2022/12/09 11:53:45;;;;;;;20.80;4.05;;;15.30;99.90;;;;;;5032695;28;20048;-72
2022/12/09 11:56:53;;;;;;;25.85;4.35;;;15.30;99.90;;;;;;5033343;28;20578;-71
2022/12/09 12:00:04;;;;;;;26.23;3.97;;;15.30;99.90;;;;;;5033044;28;20041;-72
2022/12/09 12:03:22;;;;;;;27.10;3.90;;;15.30;99.90;;;;;;5031928;28;20515;-72
2022/12/09 12:06:49;;;;;;;24.48;4.38;;;15.20;99.90;;;;;;5032647;28;20040;-71
2022/12/09 12:09:58;;;;;;;22.40;4.60;;;15.30;99.90;;;;;;5026848;28;20040;-71
2022/12/09 12:13:14;;;;;;;25.60;3.45;;;15.20;99.90;;;;;;5031169;28;20040;-72
2022/12/09 12:16:40;;;;;;;24.38;3.88;;;15.20;99.90;;;;;;5032886;28;20049;-71
2022/12/09 12:19:50;;;;;;;19.63;4.07;;;15.20;99.90;;;;;;5029188;28;20052;-72
2022/12/09 12:23:06;;;;;;;21.17;3.83;;;15.10;99.90;;;;;;5032100;28;20060;-72
2022/12/09 12:26:19;;;;;;;17.80;3.70;;;15.10;99.90;;;;;;5031355;28;20033;-72
2022/12/09 12:30:01;;;;;;;17.08;3.40;;;15.10;99.90;;;;;;5022218;28;20045;-72
2022/12/09 12:33:37;;;;;;;25.20;4.45;;;15.10;99.90;;;;;;5026388;28;20113;-73
2022/12/09 12:36:59;;;;;;;20.88;3.65;;;15.10;99.90;;;;;;5029504;28;20040;-72
2022/12/09 12:40:02;;;;;;;13.93;3.72;;;15.10;99.90;;;;;;5029033;28;20044;-72
2022/12/09 12:47:03;;;;;;;21.63;3.45;;;15.10;99.90;;;;;;5027555;28;20052;-72
2022/12/09 12:50:58;;;;;;;15.23;3.80;;;15.20;99.90;;;;;;5029266;28;20052;-73
2022/12/09 12:54:29;;;;;;;18.48;4.18;;;15.10;99.90;;;;;;5006765;28;20037;-72
2022/12/09 12:57:44;;;;;;;16.58;3.40;;;15.10;99.90;;;;;;5031223;28;20036;-72
2022/12/09 13:01:30;;;;;;;22.38;4.30;;;15.10;99.90;;;;;;5029115;28;20036;-72
2022/12/09 13:04:49;;;;;;;22.30;3.75;;;15.10;99.90;;;;;;5039484;28;20044;-72
2022/12/09 13:08:33;;;;;;;14.63;3.05;;;15.10;99.90;;;;;;5035655;28;20060;-72
2022/12/09 13:11:57;;;;;;;18.27;3.00;;;15.10;99.90;;;;;;5034124;28;20048;-72
2022/12/09 13:15:02;;;;;;;29.02;3.00;;;15.10;99.90;;;;;;5028374;28;20044;-72
2022/12/09 13:18:32;;;;;;;25.27;3.55;;;15.10;99.90;;;;;;5025655;28;20269;-72
2022/12/09 13:21:37;;;;;;;17.30;3.38;;;15.10;99.90;;;;;;5022983;28;20045;-72
2022/12/09 13:24:59;;;;;;;17.17;2.95;;;15.00;99.90;;;;;;5028284;28;20053;-73
2022/12/09 13:28:14;;;;;;;21.33;3.58;;;15.10;99.90;;;;;;5034333;28;20048;-72
2022/12/09 13:31:24;;;;;;;14.52;2.88;;;15.10;99.90;;;;;;5030773;28;20040;-72
2022/12/09 13:34:38;;;;;;;16.35;2.70;;;15.20;99.90;;;;;;5034337;28;20052;-72
2022/12/09 13:37:43;;;;;;;17.60;2.80;;;15.30;99.90;;;;;;5037936;28;20036;-72
2022/12/09 13:40:46;;;;;;;11.48;4.43;;;15.30;99.90;;;;;;5028111;28;20044;-72
2022/12/09 13:44:17;;;;;;;18.98;4.53;;;15.30;99.90;;;;;;5036283;28;20652;-72
2022/12/09 13:47:25;;;;;;;8.63;2.87;;;15.20;99.90;;;;;;5023684;28;20391;-73
2022/12/09 13:50:46;;;;;;;14.30;2.80;;;15.10;99.90;;;;;;5029495;28;20047;-72
2022/12/09 13:53:59;;;;;;;11.65;3.65;;;15.10;99.90;;;;;;5033348;28;20530;-73
2022/12/09 13:57:24;;;;;;;17.65;3.80;;;15.00;99.90;;;;;;5036167;28;20037;-72
2022/12/09 14:00:29;;;;;;;18.02;6.43;;;15.00;99.90;;;;;;5037308;28;20187;-72
2022/12/09 14:03:39;;;;;;;15.55;4.75;;;15.10;99.90;;;;;;5027994;28;20409;-73
2022/12/09 14:06:43;;;;;;;15.82;4.10;;;15.10;99.90;;;;;;5037650;28;20388;-72
2022/12/09 14:09:54;;;;;;;22.90;3.63;;;15.30;99.90;;;;;;5036371;28;20060;-72
2022/12/09 14:12:58;;;;;;;14.48;4.05;;;15.40;99.90;;;;;;5033477;28;20061;-71
2022/12/09 14:16:22;;;;;;;13.23;2.80;;;15.60;99.90;;;;;;5030277;28;20060;-72
2022/12/09 14:19:28;;;;;;;10.05;3.08;;;15.70;99.90;;;;;;5027837;28;20400;-73
2022/12/09 14:22:35;;;;;;;15.95;3.25;;;15.70;99.90;;;;;;5036493;28;20057;-74
2022/12/09 14:25:55;;;;;;;15.82;3.15;;;15.80;99.90;;;;;;5033988;28;20047;-72
2022/12/09 14:28:59;;;;;;;15.20;3.70;;;15.80;99.90;;;;;;5029244;28;20072;-72
2022/12/09 14:32:04;;;;;;;21.17;4.07;;;15.70;99.90;;;;;;5028503;28;20036;-73
2022/12/09 14:35:09;;;;;;;14.43;3.83;;;15.60;99.90;;;;;;5037424;28;20040;-73
2022/12/09 14:38:27;;;;;;;14.15;2.83;;;15.50;99.90;;;;;;5038797;28;20036;-72
2022/12/09 14:41:43;;;;;;;15.18;3.50;;;15.60;99.90;;;;;;5038749;28;20048;-73
2022/12/09 14:45:01;;;;;;;18.65;4.28;;;15.50;99.90;;;;;;5035257;28;20056;-72
2022/12/09 14:48:10;;;;;;;18.40;3.70;;;15.50;99.90;;;;;;5031370;28;20078;-72
2022/12/09 14:51:22;;;;;;;14.57;3.35;;;15.40;99.90;;;;;;5040423;28;20044;-72
2022/12/09 14:54:36;;;;;;;19.25;4.03;;;15.40;99.90;;;;;;5040266;28;20053;-72
2022/12/09 14:57:45;;;;;;;16.75;4.05;;;15.30;99.90;;;;;;5029125;28;20041;-72
2022/12/09 15:01:04;;;;;;;18.35;2.97;;;15.30;99.90;;;;;;5037174;28;20045;-72
2022/12/09 15:04:29;;;;;;;18.75;4.25;;;15.40;99.90;;;;;;5037109;28;20036;-71
2022/12/09 15:07:34;;;;;;;16.67;3.97;;;15.40;99.90;;;;;;5033766;28;20048;-72
2022/12/09 15:10:38;;;;;;;18.75;3.58;;;15.30;99.90;;;;;;5032023;28;20052;-72
2022/12/09 15:13:46;;;;;;;17.25;3.08;;;15.30;99.90;;;;;;5030352;28;20060;-72
2022/12/09 15:16:50;;;;;;;13.77;3.25;;;15.40;99.90;;;;;;5033641;28;20380;-72
2022/12/09 15:19:54;;;;;;;26.35;4.82;;;15.40;99.90;;;;;;5027618;28;20049;-72
2022/12/09 15:23:17;;;;;;;17.00;5.38;;;15.40;99.90;;;;;;5029436;28;20041;-73
2022/12/09 15:26:26;;;;;;;19.75;4.13;;;15.30;99.90;;;;;;5037448;28;20040;-71
2022/12/09 15:29:32;;;;;;;19.15;3.30;;;15.20;99.90;;;;;;5031947;28;20045;-73
2022/12/09 15:32:39;;;;;;;20.40;3.55;;;15.30;99.90;;;;;;5036561;28;20052;-73
2022/12/09 15:35:58;;;;;;;17.15;3.70;;;15.20;99.90;;;;;;5027957;28;20032;-72
2022/12/09 15:39:07;;;;;;;21.40;4.60;;;15.30;99.90;;;;;;5036360;28;20046;-72
2022/12/09 15:42:15;;;;;;;15.30;3.80;;;15.20;99.90;;;;;;5030479;28;20435;-72
2022/12/09 15:45:24;;;;;;;20.13;3.47;;;15.20;99.90;;;;;;5037621;28;20056;-72
2022/12/09 15:48:36;;;;;;;20.90;3.83;;;15.20;99.90;;;;;;5044346;28;20060;-72
2022/12/09 15:51:44;;;;;;;20.75;4.13;;;15.10;99.90;;;;;;5033567;28;20399;-72
2022/12/09 15:54:49;;;;;;;24.83;3.97;;;15.10;99.90;;;;;;5039506;28;20043;-72
2022/12/09 15:57:56;;;;;;;13.80;3.67;;;15.00;99.90;;;;;;5025075;28;20048;-72
2022/12/09 16:01:01;;;;;;;19.48;4.80;;;15.10;99.90;;;;;;5034765;28;20048;-72
2022/12/09 16:04:08;;;;;;;19.02;4.93;;;15.10;99.90;;;;;;5025206;28;20052;-72
2022/12/09 16:07:15;;;;;;;24.90;5.85;;;15.10;99.90;;;;;;5031318;28;20048;-72
2022/12/09 16:10:25;;;;;;;23.88;6.40;;;15.10;99.90;;;;;;5027632;28;20044;-72
2022/12/09 16:13:30;;;;;;;17.35;4.70;;;15.00;99.90;;;;;;5038791;28;20053;-71
2022/12/09 16:16:54;;;;;;;24.75;5.45;;;15.10;99.90;;;;;;5026435;28;20040;-72